.
WxDataArchive / Data Records for 2013-10-21
2013-10-20 October 2013 2013-10-22

Data Records for Monday, 21 October 2013

Time	Temp	Chill	HIndex	Humid	Dewpt	 Wind 	HiWind	WindDir	Rain 	Barom 
-----	----	-----	------	-----	-----	------	------	-------	-----	----- 
00:00	55.3	55.3	55.3	57	40.3	2	7	270	0.00	29.873 
00:05	55.1	55.1	55.1	57	40.1	0	3	248	0.00	29.873 
00:10	55.1	55.1	55.1	57	40.1	1	10	248	0.00	29.873 
00:15	55.1	55.1	55.1	57	40.1	1	6	248	0.00	29.869 
00:20	55.0	55.0	55.0	58	40.5	1	3	270	0.00	29.869 
00:25	54.8	54.8	54.8	58	40.3	1	5	270	0.00	29.869 
00:30	54.8	54.8	54.8	58	40.3	1	4	292	0.00	29.869 
00:35	54.7	54.7	54.7	58	40.2	1	8	248	0.00	29.869 
00:40	54.7	54.7	54.7	58	40.2	1	5	248	0.00	29.869 
00:45	54.7	54.7	54.7	58	40.2	1	6	248	0.00	29.865 
00:50	54.5	54.5	54.5	58	40.0	1	5	270	0.00	29.865 
00:55	54.5	54.5	54.5	58	40.0	1	5	292	0.00	29.865 
01:00	54.7	54.7	54.7	59	40.7	1	6	270	0.00	29.862 
01:05	54.5	54.5	54.5	59	40.5	1	7	248	0.00	29.862 
01:10	54.5	54.5	54.5	59	40.5	1	3	270	0.00	29.862 
01:15	54.5	54.5	54.5	59	40.5	1	4	270	0.00	29.859 
01:20	54.5	54.5	54.5	59	40.5	1	7	270	0.00	29.859 
01:25	54.5	54.5	54.5	59	40.5	1	5	270	0.00	29.859 
01:30	54.5	54.5	54.5	59	40.5	2	6	270	0.00	29.856 
01:35	54.4	54.4	54.4	59	40.4	1	6	270	0.00	29.856 
01:40	54.4	54.4	54.4	60	40.8	1	3	270	0.00	29.856 
01:45	54.2	54.2	54.2	60	40.6	1	5	270	0.00	29.861 
01:50	54.2	54.2	54.2	60	40.6	1	7	248	0.00	29.861 
01:55	54.2	54.2	54.2	60	40.6	1	6	270	0.00	29.861 
02:00	54.1	54.1	54.1	60	40.5	1	5	270	0.00	29.857 
02:05	54.1	54.1	54.1	61	41.0	1	3	248	0.00	29.857 
02:10	54.1	54.1	54.1	61	41.0	1	5	248	0.00	29.857 
02:15	53.9	53.9	53.9	61	40.8	0	4	270	0.00	29.859 
02:20	53.9	53.9	53.9	61	40.8	1	4	248	0.00	29.859 
02:25	53.8	53.8	53.8	62	41.1	0	3	248	0.00	29.859 
02:30	53.6	53.6	53.6	62	40.9	1	4	270	0.00	29.859 
02:35	53.6	53.6	53.6	62	40.9	1	5	270	0.00	29.859 
02:40	53.6	53.6	53.6	62	40.9	1	4	270	0.00	29.859 
02:45	53.5	53.5	53.5	62	40.8	1	3	270	0.00	29.861 
02:50	53.3	53.3	53.3	63	41.0	1	5	270	0.00	29.861 
02:55	53.2	53.2	53.2	63	40.9	1	6	292	0.00	29.861 
03:00	53.1	53.1	53.1	63	40.8	1	6	225	0.00	29.861 
03:05	52.9	52.9	52.9	63	40.7	1	3	292	0.00	29.861 
03:10	52.8	52.8	52.8	64	41.0	0	3	248	0.00	29.861 
03:15	52.6	52.6	52.6	65	41.2	0	3	225	0.00	29.863 
03:20	52.5	52.5	52.5	65	41.1	0	4	248	0.00	29.863 
03:25	52.3	52.3	52.3	65	40.9	1	3	248	0.00	29.863 
03:30	52.2	52.2	52.2	65	40.8	0	4	248	0.00	29.864 
03:35	52.0	52.0	52.0	65	40.6	0	2	248	0.00	29.864 
03:40	51.9	51.9	51.9	66	40.9	0	4	270	0.00	29.864 
03:45	51.7	51.7	51.7	66	40.7	1	4	248	0.00	29.856 
03:50	51.7	51.7	51.7	66	40.7	1	4	270	0.00	29.856 
03:55	51.7	51.7	51.7	66	40.7	0	4	270	0.00	29.856 
04:00	51.6	51.6	51.6	66	40.6	0	2	248	0.00	29.859 
04:05	51.4	51.4	51.4	67	40.8	1	4	248	0.00	29.859 
04:10	51.3	51.3	51.3	67	40.7	1	3	292	0.00	29.859 
04:15	51.3	51.3	51.3	67	40.7	0	2	248	0.00	29.861 
04:20	51.1	51.1	51.1	68	40.9	0	2	248	0.00	29.861 
04:25	51.0	51.0	51.0	68	40.8	0	3	248	0.00	29.861 
04:30	50.8	50.8	50.8	69	41.0	0	1	248	0.00	29.868 
04:35	50.7	50.7	50.7	69	40.9	0	3	248	0.00	29.868 
04:40	50.5	50.5	50.5	69	40.7	0	3	248	0.00	29.868 
04:45	50.5	50.5	50.5	70	41.1	0	1	248	0.00	29.867 
04:50	50.4	50.4	50.4	70	41.0	0	2	248	0.00	29.867 
04:55	50.4	50.4	50.4	70	41.0	0	2	248	0.00	29.867 
05:00	50.2	50.2	50.2	71	41.2	0	1	248	0.00	29.863 
05:05	50.2	50.2	50.2	71	41.2	0	3	248	0.00	29.863 
05:10	50.2	50.2	50.2	71	41.2	0	3	248	0.00	29.863 
05:15	50.1	50.1	50.1	71	41.1	0	2	248	0.00	29.861 
05:20	50.1	50.1	50.1	71	41.1	0	2	248	0.00	29.861 
05:25	50.1	50.1	50.1	71	41.1	0	3	248	0.00	29.861 
05:30	50.1	50.1	50.1	71	41.1	0	3	248	0.00	29.860 
05:35	50.1	50.1	50.1	71	41.1	1	4	248	0.00	29.860 
05:40	50.1	50.1	50.1	71	41.1	1	4	248	0.00	29.860 
05:45	50.1	50.1	50.1	71	41.1	0	2	270	0.00	29.857 
05:50	50.1	50.1	50.1	71	41.1	1	4	248	0.00	29.857 
05:55	50.1	50.1	50.1	71	41.1	0	2	248	0.00	29.857 
06:00	50.1	50.1	50.1	71	41.1	0	3	248	0.00	29.859 
06:05	50.1	50.1	50.1	71	41.1	0	3	248	0.00	29.859 
06:10	50.1	50.1	50.1	71	41.1	1	6	248	0.00	29.859 
06:15	50.1	50.1	50.1	71	41.1	0	1	248	0.00	29.863 
06:20	50.1	50.1	50.1	71	41.1	0	2	248	0.00	29.863 
06:25	50.1	50.1	50.1	71	41.1	1	5	270	0.00	29.863 
06:30	49.9	49.9	49.9	72	41.2	0	3	270	0.00	29.863 
06:35	49.9	49.9	49.9	72	41.2	0	2	248	0.00	29.863 
06:40	49.9	49.9	49.9	72	41.2	0	3	248	0.00	29.863 
06:45	49.9	49.9	49.9	72	41.2	0	2	248	0.00	29.867 
06:50	49.9	49.9	49.9	72	41.2	0	3	248	0.00	29.867 
06:55	49.9	49.9	49.9	72	41.2	0	5	248	0.00	29.867 
07:00	49.9	49.9	49.9	72	41.2	0	3	248	0.00	29.869 
07:05	49.8	49.8	49.8	73	41.5	0	2	248	0.00	29.869 
07:10	49.8	49.8	49.8	73	41.5	0	1	225	0.00	29.869 
07:15	49.6	49.6	49.6	73	41.3	0	2	248	0.00	29.871 
07:20	49.5	49.5	49.5	73	41.2	0	2	248	0.00	29.871 
07:25	49.4	49.4	49.4	73	41.1	0	3	248	0.00	29.871 
07:30	49.4	49.4	49.4	73	41.1	0	2	270	0.00	29.872 
07:35	49.4	49.4	49.4	74	41.5	0	1	270	0.00	29.872 
07:40	49.2	49.2	49.2	74	41.3	0	3	270	0.00	29.872 
07:45	49.2	49.2	49.2	74	41.3	0	2	270	0.00	29.871 
07:50	49.4	49.4	49.4	74	41.5	0	1	270	0.00	29.871 
07:55	49.4	49.4	49.4	74	41.5	0	3	270	0.00	29.871 
08:00	49.4	49.4	49.4	74	41.5	0	3	270	0.00	29.875 
08:05	49.4	49.4	49.4	74	41.5	0	1	270	0.00	29.875 
08:10	49.4	49.4	49.4	74	41.5	0	3	270	0.00	29.875 
08:15	49.4	49.4	49.4	74	41.5	0	3	270	0.00	29.877 
08:20	49.4	49.4	49.4	74	41.5	0	2	248	0.00	29.877 
08:25	49.4	49.4	49.4	74	41.5	0	3	270	0.00	29.877 
08:30	49.2	49.2	49.2	74	41.3	0	2	270	0.00	29.877 
08:35	49.2	49.2	49.2	75	41.6	0	1	270	0.00	29.877 
08:40	49.2	49.2	49.2	75	41.6	0	1	270	0.00	29.877 
08:45	49.4	49.4	49.4	75	41.8	0	1	270	0.00	29.886 
08:50	49.4	49.4	49.4	75	41.8	0	3	270	0.00	29.886 
08:55	49.4	49.4	49.4	75	41.8	0	3	270	0.00	29.886 
09:00	49.4	49.4	49.4	75	41.8	0	2	270	0.00	29.888 
09:05	49.4	49.4	49.4	75	41.8	0	2	270	0.00	29.888 
09:10	49.4	49.4	49.4	75	41.8	0	1	270	0.00	29.888 
09:15	49.4	49.4	49.4	75	41.8	0	1	270	0.00	29.893 
09:20	49.5	49.5	49.5	75	41.9	0	2	270	0.00	29.893 
09:25	49.6	49.6	49.6	75	42.0	0	4	270	0.00	29.893 
09:30	49.9	49.9	49.9	74	41.9	0	4	270	0.00	29.892 
09:35	50.1	50.1	50.1	74	42.1	0	3	248	0.00	29.892 
09:40	50.2	50.2	50.2	74	42.2	0	2	248	0.00	29.892 
09:45	50.4	50.4	50.4	74	42.4	0	2	248	0.00	29.891 
09:50	50.5	50.5	50.5	74	42.5	0	2	248	0.00	29.891 
09:55	50.8	50.8	50.8	73	42.5	0	3	248	0.00	29.891 
10:00	51.0	51.0	51.0	73	42.7	1	4	248	0.00	29.892 
10:05	51.3	51.3	51.3	73	42.9	0	2	292	0.00	29.892 
10:10	51.6	51.6	51.6	71	42.5	1	4	248	0.00	29.892 
10:15	51.7	51.7	51.7	71	42.6	0	3	248	0.00	29.888 
10:20	52.0	52.0	52.0	71	42.9	0	2	248	0.00	29.888 
10:25	52.3	52.3	52.3	71	43.2	1	3	248	0.00	29.888 
10:30	52.6	52.6	52.6	69	42.7	1	4	248	0.00	29.887 
10:35	52.8	52.8	52.8	69	42.9	0	3	248	0.00	29.887 
10:40	53.2	53.2	53.2	70	43.7	0	1	248	0.00	29.887 
10:45	53.3	53.3	53.3	68	43.0	1	3	248	0.00	29.884 
10:50	53.6	53.6	53.6	69	43.7	1	3	248	0.00	29.884 
10:55	53.9	53.9	53.9	68	43.6	1	5	248	0.00	29.884 
11:00	54.1	54.1	54.1	67	43.4	1	5	248	0.00	29.874 
11:05	54.4	54.4	54.4	67	43.7	1	4	248	0.00	29.874 
11:10	54.8	54.8	54.8	66	43.7	1	4	248	0.00	29.874 
11:15	55.0	55.0	55.0	65	43.5	1	2	248	0.00	29.872 
11:20	55.3	55.3	55.3	66	44.1	1	3	248	0.00	29.872 
11:25	55.6	55.6	55.6	66	44.4	1	3	248	0.00	29.872 
11:30	55.9	55.9	55.9	65	44.3	1	4	248	0.00	29.881 
11:35	56.0	56.0	56.0	65	44.4	1	3	248	0.00	29.881 
11:40	56.2	56.2	56.2	65	44.6	1	3	248	0.00	29.881 
11:45	56.0	56.0	56.0	65	44.4	1	4	292	0.00	29.880 
11:50	55.7	55.7	55.7	65	44.1	0	2	292	0.00	29.880 
11:55	55.4	55.4	55.4	66	44.2	1	3	292	0.00	29.880 
12:00	55.1	55.1	55.1	66	43.9	0	2	292	0.00	29.879 
12:05	55.1	55.1	55.1	67	44.3	0	1	292	0.00	29.879 
12:10	55.0	55.0	55.0	67	44.2	0	2	292	0.00	29.879 
12:15	55.0	55.0	55.0	67	44.2	0	2	292	0.00	29.882 
12:20	54.8	54.8	54.8	67	44.1	0	2	292	0.00	29.882 
12:25	54.7	54.7	54.7	68	44.3	0	2	292	0.00	29.882 
12:30	54.4	54.4	54.4	69	44.4	0	2	292	0.00	29.884 
12:35	54.2	54.2	54.2	69	44.3	0	1	292	0.00	29.884 
12:40	54.2	54.2	54.2	70	44.6	0	1	292	0.00	29.884 
12:45	54.1	54.1	54.1	70	44.5	0	1	292	0.00	29.877 
12:50	54.1	54.1	54.1	71	44.9	0	3	292	0.00	29.877 
12:55	53.8	53.8	53.8	72	45.0	0	1	292	0.00	29.877 
13:00	53.8	53.8	53.8	73	45.3	0	1	292	0.00	29.875 
13:05	53.6	53.6	53.6	74	45.5	0	1	292	0.00	29.875 
13:10	53.5	53.5	53.5	74	45.4	0	1	292	0.00	29.875 
13:15	53.5	53.5	53.5	74	45.4	0	1	292	0.00	29.871 
13:20	53.5	53.5	53.5	75	45.8	0	1	292	0.00	29.871 
13:25	53.3	53.3	53.3	76	45.9	0	0	---	0.00	29.871 
13:30	53.3	53.3	53.3	77	46.3	0	1	292	0.00	29.873 
13:35	53.1	53.1	53.1	78	46.4	0	2	292	0.00	29.873 
13:40	52.9	52.9	52.9	78	46.2	0	1	292	0.00	29.873 
13:45	52.8	52.8	52.8	80	46.8	0	1	292	0.00	29.872 
13:50	52.8	52.8	52.8	80	46.8	0	1	292	0.00	29.872 
13:55	52.8	52.8	52.8	80	46.8	0	1	292	0.00	29.872 
14:00	52.6	52.6	52.6	80	46.6	0	2	292	0.00	29.862 
14:05	52.6	52.6	52.6	81	46.9	0	2	292	0.00	29.862 
14:10	52.3	52.3	52.3	81	46.6	1	3	292	0.00	29.862 
14:15	52.0	52.0	52.0	80	46.0	1	4	292	0.00	29.860 
14:20	51.9	51.9	51.9	81	46.3	0	1	292	0.00	29.860 
14:25	51.9	51.9	51.9	82	46.6	0	2	292	0.00	29.860 
14:30	51.9	51.9	51.9	82	46.6	0	2	292	0.00	29.861 
14:35	51.9	51.9	51.9	82	46.6	1	4	292	0.00	29.861 
14:40	51.9	51.9	51.9	82	46.6	1	4	292	0.00	29.861 
14:45	51.9	51.9	51.9	83	46.9	1	2	292	0.00	29.860 
14:50	51.9	51.9	51.9	82	46.6	0	3	315	0.00	29.860 
14:55	51.7	51.7	51.7	83	46.7	0	3	315	0.00	29.860 
15:00	51.7	51.7	51.7	83	46.7	0	1	315	0.00	29.853 
15:05	51.6	51.6	51.6	83	46.6	0	2	315	0.00	29.853 
15:10	51.6	51.6	51.6	83	46.6	1	4	315	0.01	29.853 
15:15	51.4	51.4	51.4	83	46.4	1	3	292	0.00	29.854 
15:20	51.4	51.4	51.4	83	46.4	0	4	270	0.00	29.854 
15:25	51.3	51.3	51.3	83	46.3	0	3	270	0.00	29.854 
15:30	51.3	51.3	51.3	83	46.3	0	2	270	0.00	29.851 
15:35	51.3	51.3	51.3	84	46.6	0	3	270	0.00	29.851 
15:40	51.3	51.3	51.3	84	46.6	0	1	270	0.00	29.851 
15:45	51.3	51.3	51.3	84	46.6	0	1	270	0.00	29.856 
15:50	51.4	51.4	51.4	84	46.7	0	1	270	0.00	29.856 
15:55	51.4	51.4	51.4	84	46.7	0	1	270	0.00	29.856 
16:00	51.4	51.4	51.4	84	46.7	0	2	270	0.00	29.855 
16:05	51.3	51.3	51.3	83	46.3	1	3	270	0.00	29.855 
16:10	51.1	51.1	51.1	83	46.1	0	2	270	0.00	29.855 
16:15	51.0	51.0	51.0	84	46.3	0	2	270	0.00	29.852 
16:20	51.0	51.0	51.0	84	46.3	0	1	270	0.00	29.852 
16:25	50.8	50.8	50.8	84	46.1	1	3	270	0.00	29.852 
16:30	50.7	50.7	50.7	85	46.4	0	2	270	0.00	29.856 
16:35	50.7	50.7	50.7	85	46.4	0	3	270	0.00	29.856 
16:40	50.7	50.7	50.7	86	46.7	0	2	270	0.00	29.856 
16:45	50.5	50.5	50.5	86	46.5	0	2	270	0.00	29.855 
16:50	50.4	50.4	50.4	86	46.4	0	1	270	0.00	29.855 
16:55	50.4	50.4	50.4	87	46.7	0	3	270	0.01	29.855 
17:00	50.4	50.4	50.4	87	46.7	0	1	270	0.00	29.855 
17:05	50.2	50.2	50.2	88	46.8	0	1	270	0.00	29.855 
17:10	50.2	50.2	50.2	88	46.8	0	1	270	0.00	29.855 
17:15	50.1	50.1	50.1	89	47.0	0	2	270	0.01	29.853 
17:20	50.1	50.1	50.1	89	47.0	0	1	270	0.00	29.853 
17:25	50.1	50.1	50.1	89	47.0	0	2	270	0.00	29.853 
17:30	49.8	49.8	49.8	89	46.7	0	3	270	0.00	29.861 
17:35	49.8	49.8	49.8	90	47.0	0	2	270	0.00	29.861 
17:40	49.4	49.4	49.4	89	46.3	1	3	270	0.00	29.861 
17:45	49.1	49.1	49.1	88	45.7	1	4	270	0.00	29.864 
17:50	48.9	48.9	48.9	87	45.2	1	3	270	0.00	29.864 
17:55	48.9	48.9	48.9	87	45.2	1	3	270	0.00	29.864 
18:00	48.9	48.9	48.9	86	44.9	0	2	270	0.00	29.865 
18:05	48.9	48.9	48.9	85	44.6	1	4	270	0.00	29.865 
18:10	48.9	48.9	48.9	85	44.6	0	2	270	0.00	29.865 
18:15	48.8	48.8	48.8	84	44.2	1	5	315	0.00	29.868 
18:20	48.8	48.8	48.8	83	43.9	1	3	315	0.00	29.868 
18:25	48.8	48.8	48.8	82	43.6	1	4	292	0.00	29.868 
18:30	48.8	48.8	48.8	81	43.2	0	3	292	0.00	29.878 
18:35	48.6	48.6	48.6	80	42.7	1	5	270	0.00	29.878 
18:40	48.6	48.6	48.6	80	42.7	1	4	270	0.00	29.878 
18:45	48.5	48.5	48.5	79	42.3	0	4	270	0.00	29.881 
18:50	48.5	48.5	48.5	78	42.0	1	3	270	0.00	29.881 
18:55	48.3	48.3	48.3	78	41.8	0	3	270	0.00	29.881 
19:00	48.3	48.3	48.3	78	41.8	0	2	270	0.00	29.883 
19:05	48.2	48.2	48.2	77	41.3	0	3	248	0.00	29.883 
19:10	48.0	48.0	48.0	77	41.1	0	2	292	0.00	29.883 
19:15	48.0	48.0	48.0	77	41.1	0	2	270	0.00	29.888 
19:20	47.9	47.9	47.9	77	41.0	0	4	270	0.00	29.888 
19:25	47.9	47.9	47.9	77	41.0	0	3	270	0.00	29.888 
19:30	47.7	47.7	47.7	77	40.8	1	4	270	0.00	29.897 
19:35	47.7	47.7	47.7	77	40.8	0	3	248	0.00	29.897 
19:40	47.6	47.6	47.6	76	40.4	1	3	248	0.00	29.897 
19:45	47.4	47.4	47.4	75	39.9	1	4	270	0.00	29.901 
19:50	47.3	47.3	47.3	75	39.8	1	4	270	0.00	29.901 
19:55	47.0	47.0	47.0	73	38.8	3	8	292	0.00	29.901 
20:00	46.4	46.4	46.4	69	36.8	3	7	270	0.00	29.908 
20:05	46.1	46.1	46.1	69	36.5	2	4	292	0.00	29.908 
20:10	45.8	45.8	45.8	69	36.2	2	5	270	0.00	29.908 
20:15	45.5	45.5	45.5	68	35.6	3	5	270	0.00	29.915 
20:20	45.2	45.2	45.2	68	35.3	2	6	270	0.00	29.915 
20:25	45.1	45.1	45.1	68	35.2	2	4	270	0.00	29.915 
20:30	44.8	44.8	44.8	68	34.9	2	4	270	0.00	29.917 
20:35	44.6	44.6	44.6	68	34.7	1	3	270	0.00	29.917 
20:40	44.3	44.3	44.3	69	34.8	1	3	270	0.00	29.917 
20:45	44.1	44.1	44.1	69	34.6	0	3	270	0.00	29.917 
20:50	43.8	43.8	43.8	70	34.7	0	1	270	0.00	29.917 
20:55	43.5	43.5	43.5	70	34.4	0	2	270	0.00	29.917 
21:00	43.3	43.3	43.3	71	34.5	0	1	270	0.00	29.915 
21:05	43.2	43.2	43.2	71	34.4	0	1	270	0.00	29.915 
21:10	42.9	42.9	42.9	72	34.5	0	1	270	0.00	29.915 
21:15	42.8	42.8	42.8	72	34.4	0	1	270	0.00	29.909 
21:20	42.6	42.6	42.6	73	34.6	0	2	270	0.00	29.909 
21:25	42.5	42.5	42.5	73	34.5	0	1	270	0.00	29.909 
21:30	42.2	42.2	42.2	73	34.2	0	1	270	0.00	29.909 
21:35	42.2	42.2	42.2	73	34.2	0	1	270	0.00	29.909 
21:40	42.1	42.1	42.1	73	34.1	0	0	---	0.00	29.909 
21:45	42.1	42.1	42.1	73	34.1	0	1	270	0.00	29.916 
21:50	42.1	42.1	42.1	73	34.1	0	1	270	0.00	29.916 
21:55	42.1	42.1	42.1	73	34.1	0	1	270	0.00	29.916 
22:00	42.1	42.1	42.1	73	34.1	0	1	270	0.00	29.917 
22:05	41.9	41.9	41.9	73	33.9	0	1	270	0.00	29.917 
22:10	41.9	41.9	41.9	73	33.9	0	1	270	0.00	29.917 
22:15	41.9	41.9	41.9	73	33.9	0	1	270	0.00	29.916 
22:20	41.8	41.8	41.8	73	33.8	0	1	270	0.00	29.916 
22:25	41.6	41.6	41.6	73	33.6	0	1	270	0.00	29.916 
22:30	41.6	41.6	41.6	73	33.6	0	3	270	0.00	29.920 
22:35	41.5	41.5	41.5	73	33.5	0	3	270	0.00	29.920 
22:40	41.5	41.5	41.5	73	33.5	1	2	270	0.00	29.920 
22:45	41.3	41.3	41.3	73	33.3	1	3	270	0.00	29.924 
22:50	41.2	41.2	41.2	72	32.9	1	3	270	0.00	29.924 
22:55	41.2	41.2	41.2	71	32.5	1	3	270	0.00	29.924 
23:00	41.1	41.1	41.1	70	32.1	2	6	270	0.00	29.927 
23:05	40.9	40.9	40.9	69	31.5	2	5	270	0.00	29.927 
23:10	40.8	40.8	40.8	67	30.7	1	3	270	0.00	29.927 
23:15	40.8	40.8	40.8	66	30.3	2	4	270	0.00	29.923 
23:20	40.6	40.6	40.6	66	30.1	1	5	270	0.00	29.923 
23:25	40.5	40.5	40.5	67	30.4	0	1	270	0.00	29.923 
23:30	40.2	40.2	40.2	67	30.1	1	3	270	0.00	29.927 
23:35	40.1	40.1	40.1	67	30.0	1	4	270	0.00	29.927 
23:40	39.9	39.9	39.9	66	29.5	1	3	270	0.00	29.927 
23:45	39.9	39.9	39.9	67	29.8	0	2	270	0.00	29.930 
23:50	39.6	39.6	39.6	68	29.9	0	2	270	0.00	29.930 
23:55	39.3	39.3	39.3	68	29.6	0	1	270	0.00	29.930 

CoCoRaHS
IN-AL-39
A2 Web Hosting
Creative Commons License
GoDaddy
search engine by freefind advanced

loaded 2018-11-15 03:27:21 • last modified 2010-11-18 10:43:29
Privacy PolicyDisclaimer
• wx.awcolley.com is powered by PmWiki v.2002016 •
• all content (unless otherwise noted) © 2018 A W Colley